sensor_id;sensor_type;location;lat;lon;timestamp;P1;durP1;ratioP1;P2;durP2;ratioP2
64520;SDS011;50896;46.714;17.322;2024-02-26T00:01:50;30.15;;;16.92;;
64520;SDS011;50896;46.714;17.322;2024-02-26T00:04:17;32.50;;;18.05;;
64520;SDS011;50896;46.714;17.322;2024-02-26T00:06:44;32.00;;;18.15;;
64520;SDS011;50896;46.714;17.322;2024-02-26T00:09:12;31.15;;;18.05;;
64520;SDS011;50896;46.714;17.322;2024-02-26T00:11:39;31.75;;;18.27;;
64520;SDS011;50896;46.714;17.322;2024-02-26T00:14:06;32.40;;;18.73;;
64520;SDS011;50896;46.714;17.322;2024-02-26T00:16:33;30.27;;;17.30;;
64520;SDS011;50896;46.714;17.322;2024-02-26T00:19:00;30.98;;;17.70;;
64520;SDS011;50896;46.714;17.322;2024-02-26T00:21:27;32.97;;;16.38;;
64520;SDS011;50896;46.714;17.322;2024-02-26T00:23:55;31.60;;;17.60;;
64520;SDS011;50896;46.714;17.322;2024-02-26T00:26:23;28.50;;;17.05;;
64520;SDS011;50896;46.714;17.322;2024-02-26T00:28:49;28.45;;;16.42;;
64520;SDS011;50896;46.714;17.322;2024-02-26T00:31:16;26.45;;;14.88;;
64520;SDS011;50896;46.714;17.322;2024-02-26T00:33:43;23.80;;;14.05;;
64520;SDS011;50896;46.714;17.322;2024-02-26T00:36:10;26.70;;;15.57;;
64520;SDS011;50896;46.714;17.322;2024-02-26T00:38:37;30.25;;;16.15;;
64520;SDS011;50896;46.714;17.322;2024-02-26T00:41:04;30.80;;;16.08;;
64520;SDS011;50896;46.714;17.322;2024-02-26T00:43:30;23.42;;;14.40;;
64520;SDS011;50896;46.714;17.322;2024-02-26T00:45:57;26.80;;;15.07;;
64520;SDS011;50896;46.714;17.322;2024-02-26T00:48:24;27.17;;;14.73;;
64520;SDS011;50896;46.714;17.322;2024-02-26T00:50:52;28.10;;;15.63;;
64520;SDS011;50896;46.714;17.322;2024-02-26T00:53:19;25.63;;;15.73;;
64520;SDS011;50896;46.714;17.322;2024-02-26T00:55:46;30.00;;;16.40;;
64520;SDS011;50896;46.714;17.322;2024-02-26T00:58:13;30.95;;;16.20;;
64520;SDS011;50896;46.714;17.322;2024-02-26T01:00:40;26.83;;;15.60;;
64520;SDS011;50896;46.714;17.322;2024-02-26T01:03:07;26.10;;;15.32;;
64520;SDS011;50896;46.714;17.322;2024-02-26T01:05:34;24.92;;;15.30;;
64520;SDS011;50896;46.714;17.322;2024-02-26T01:08:01;24.55;;;14.20;;
64520;SDS011;50896;46.714;17.322;2024-02-26T01:10:28;25.17;;;14.40;;
64520;SDS011;50896;46.714;17.322;2024-02-26T01:12:54;25.45;;;14.82;;
64520;SDS011;50896;46.714;17.322;2024-02-26T01:15:21;25.58;;;14.80;;
64520;SDS011;50896;46.714;17.322;2024-02-26T01:17:50;22.48;;;13.63;;
64520;SDS011;50896;46.714;17.322;2024-02-26T01:20:17;24.60;;;14.10;;
64520;SDS011;50896;46.714;17.322;2024-02-26T01:22:44;28.27;;;14.90;;
64520;SDS011;50896;46.714;17.322;2024-02-26T01:25:12;23.73;;;13.77;;
64520;SDS011;50896;46.714;17.322;2024-02-26T01:27:39;24.92;;;15.02;;
64520;SDS011;50896;46.714;17.322;2024-02-26T01:30:09;24.88;;;15.18;;
64520;SDS011;50896;46.714;17.322;2024-02-26T01:32:36;30.38;;;16.80;;
64520;SDS011;50896;46.714;17.322;2024-02-26T01:35:03;31.30;;;16.02;;
64520;SDS011;50896;46.714;17.322;2024-02-26T01:37:31;30.52;;;16.83;;
64520;SDS011;50896;46.714;17.322;2024-02-26T01:39:58;25.60;;;15.45;;
64520;SDS011;50896;46.714;17.322;2024-02-26T01:42:25;29.63;;;17.13;;
64520;SDS011;50896;46.714;17.322;2024-02-26T01:44:52;27.15;;;15.60;;
64520;SDS011;50896;46.714;17.322;2024-02-26T01:47:19;29.38;;;16.42;;
64520;SDS011;50896;46.714;17.322;2024-02-26T01:49:46;27.58;;;15.70;;
64520;SDS011;50896;46.714;17.322;2024-02-26T01:52:14;26.67;;;15.57;;
64520;SDS011;50896;46.714;17.322;2024-02-26T01:54:42;26.17;;;15.02;;
64520;SDS011;50896;46.714;17.322;2024-02-26T01:57:11;28.60;;;16.33;;
64520;SDS011;50896;46.714;17.322;2024-02-26T01:59:39;29.42;;;15.63;;
64520;SDS011;50896;46.714;17.322;2024-02-26T02:02:07;26.85;;;15.68;;
64520;SDS011;50896;46.714;17.322;2024-02-26T02:07:03;28.05;;;15.68;;
64520;SDS011;50896;46.714;17.322;2024-02-26T02:09:31;25.58;;;15.65;;
64520;SDS011;50896;46.714;17.322;2024-02-26T02:11:58;26.90;;;16.13;;
64520;SDS011;50896;46.714;17.322;2024-02-26T02:14:27;28.02;;;16.27;;
64520;SDS011;50896;46.714;17.322;2024-02-26T02:16:54;28.55;;;16.48;;
64520;SDS011;50896;46.714;17.322;2024-02-26T02:19:21;26.60;;;15.02;;
64520;SDS011;50896;46.714;17.322;2024-02-26T02:21:48;26.58;;;16.27;;
64520;SDS011;50896;46.714;17.322;2024-02-26T02:24:14;27.55;;;15.93;;
64520;SDS011;50896;46.714;17.322;2024-02-26T02:26:41;28.48;;;15.82;;
64520;SDS011;50896;46.714;17.322;2024-02-26T02:29:09;24.05;;;15.23;;
64520;SDS011;50896;46.714;17.322;2024-02-26T02:31:36;27.58;;;15.20;;
64520;SDS011;50896;46.714;17.322;2024-02-26T02:34:03;28.70;;;15.88;;
64520;SDS011;50896;46.714;17.322;2024-02-26T02:36:30;25.95;;;15.77;;
64520;SDS011;50896;46.714;17.322;2024-02-26T02:38:57;27.20;;;16.10;;
64520;SDS011;50896;46.714;17.322;2024-02-26T02:41:24;27.50;;;15.77;;
64520;SDS011;50896;46.714;17.322;2024-02-26T02:43:53;27.55;;;16.10;;
64520;SDS011;50896;46.714;17.322;2024-02-26T02:46:20;24.60;;;14.98;;
64520;SDS011;50896;46.714;17.322;2024-02-26T02:48:47;27.60;;;15.32;;
64520;SDS011;50896;46.714;17.322;2024-02-26T02:51:14;24.83;;;14.65;;
64520;SDS011;50896;46.714;17.322;2024-02-26T02:53:41;29.40;;;16.38;;
64520;SDS011;50896;46.714;17.322;2024-02-26T02:56:08;26.17;;;15.30;;
64520;SDS011;50896;46.714;17.322;2024-02-26T02:58:35;27.55;;;15.68;;
64520;SDS011;50896;46.714;17.322;2024-02-26T03:01:01;25.92;;;15.20;;
64520;SDS011;50896;46.714;17.322;2024-02-26T03:03:28;29.65;;;15.02;;
64520;SDS011;50896;46.714;17.322;2024-02-26T03:05:55;24.40;;;14.23;;
64520;SDS011;50896;46.714;17.322;2024-02-26T03:08:23;22.52;;;14.40;;
64520;SDS011;50896;46.714;17.322;2024-02-26T03:10:52;27.25;;;14.98;;
64520;SDS011;50896;46.714;17.322;2024-02-26T03:13:19;27.38;;;15.30;;
64520;SDS011;50896;46.714;17.322;2024-02-26T03:15:46;24.30;;;14.48;;
64520;SDS011;50896;46.714;17.322;2024-02-26T03:18:13;26.35;;;15.45;;
64520;SDS011;50896;46.714;17.322;2024-02-26T03:20:40;21.98;;;14.10;;
64520;SDS011;50896;46.714;17.322;2024-02-26T03:23:06;21.27;;;13.95;;
64520;SDS011;50896;46.714;17.322;2024-02-26T03:25:36;24.52;;;15.02;;
64520;SDS011;50896;46.714;17.322;2024-02-26T03:28:03;25.58;;;14.30;;
64520;SDS011;50896;46.714;17.322;2024-02-26T03:30:30;24.27;;;13.68;;
64520;SDS011;50896;46.714;17.322;2024-02-26T03:32:57;24.08;;;14.43;;
64520;SDS011;50896;46.714;17.322;2024-02-26T03:35:24;20.83;;;14.05;;
64520;SDS011;50896;46.714;17.322;2024-02-26T03:37:51;23.85;;;13.63;;
64520;SDS011;50896;46.714;17.322;2024-02-26T03:40:18;26.23;;;14.05;;
64520;SDS011;50896;46.714;17.322;2024-02-26T03:42:46;24.20;;;13.77;;
64520;SDS011;50896;46.714;17.322;2024-02-26T03:45:12;23.92;;;13.18;;
64520;SDS011;50896;46.714;17.322;2024-02-26T03:47:39;18.95;;;12.40;;
64520;SDS011;50896;46.714;17.322;2024-02-26T03:50:07;21.92;;;12.90;;
64520;SDS011;50896;46.714;17.322;2024-02-26T03:52:34;19.50;;;12.70;;
64520;SDS011;50896;46.714;17.322;2024-02-26T03:55:01;19.67;;;12.52;;
64520;SDS011;50896;46.714;17.322;2024-02-26T03:57:28;23.23;;;13.07;;
64520;SDS011;50896;46.714;17.322;2024-02-26T03:59:55;21.70;;;12.95;;
64520;SDS011;50896;46.714;17.322;2024-02-26T04:02:22;21.40;;;12.70;;
64520;SDS011;50896;46.714;17.322;2024-02-26T04:04:50;22.38;;;12.63;;
64520;SDS011;50896;46.714;17.322;2024-02-26T04:07:17;21.15;;;12.43;;
64520;SDS011;50896;46.714;17.322;2024-02-26T04:09:44;18.77;;;11.88;;
64520;SDS011;50896;46.714;17.322;2024-02-26T04:12:11;19.35;;;11.90;;
64520;SDS011;50896;46.714;17.322;2024-02-26T04:14:38;17.40;;;11.60;;
64520;SDS011;50896;46.714;17.322;2024-02-26T04:17:05;17.13;;;11.32;;
64520;SDS011;50896;46.714;17.322;2024-02-26T04:19:31;15.35;;;10.15;;
64520;SDS011;50896;46.714;17.322;2024-02-26T04:21:59;14.05;;;9.52;;
64520;SDS011;50896;46.714;17.322;2024-02-26T04:24:26;16.02;;;10.05;;
64520;SDS011;50896;46.714;17.322;2024-02-26T04:26:53;13.85;;;9.38;;
64520;SDS011;50896;46.714;17.322;2024-02-26T04:29:20;14.73;;;9.95;;
64520;SDS011;50896;46.714;17.322;2024-02-26T04:31:47;13.60;;;8.40;;
64520;SDS011;50896;46.714;17.322;2024-02-26T04:34:14;13.43;;;8.75;;
64520;SDS011;50896;46.714;17.322;2024-02-26T04:36:41;17.27;;;10.23;;
64520;SDS011;50896;46.714;17.322;2024-02-26T04:39:09;14.00;;;9.30;;
64520;SDS011;50896;46.714;17.322;2024-02-26T04:41:36;14.73;;;9.35;;
64520;SDS011;50896;46.714;17.322;2024-02-26T04:44:03;17.55;;;10.82;;
64520;SDS011;50896;46.714;17.322;2024-02-26T04:46:30;19.52;;;12.00;;
64520;SDS011;50896;46.714;17.322;2024-02-26T04:48:57;18.05;;;11.95;;
64520;SDS011;50896;46.714;17.322;2024-02-26T04:51:25;18.67;;;12.05;;
64520;SDS011;50896;46.714;17.322;2024-02-26T04:53:52;20.95;;;12.90;;
64520;SDS011;50896;46.714;17.322;2024-02-26T04:56:21;23.85;;;14.77;;
64520;SDS011;50896;46.714;17.322;2024-02-26T04:58:48;53.40;;;24.80;;
64520;SDS011;50896;46.714;17.322;2024-02-26T05:01:15;54.33;;;25.10;;
64520;SDS011;50896;46.714;17.322;2024-02-26T05:03:43;41.20;;;21.95;;
64520;SDS011;50896;46.714;17.322;2024-02-26T05:06:10;27.02;;;16.48;;
64520;SDS011;50896;46.714;17.322;2024-02-26T05:08:37;26.08;;;12.48;;
64520;SDS011;50896;46.714;17.322;2024-02-26T05:11:05;32.28;;;17.05;;
64520;SDS011;50896;46.714;17.322;2024-02-26T05:13:35;30.45;;;15.75;;
64520;SDS011;50896;46.714;17.322;2024-02-26T05:16:02;30.27;;;15.75;;
64520;SDS011;50896;46.714;17.322;2024-02-26T05:18:29;26.25;;;14.70;;
64520;SDS011;50896;46.714;17.322;2024-02-26T05:20:56;21.45;;;12.93;;
64520;SDS011;50896;46.714;17.322;2024-02-26T05:23:23;19.65;;;12.95;;
64520;SDS011;50896;46.714;17.322;2024-02-26T05:25:50;23.40;;;13.25;;
64520;SDS011;50896;46.714;17.322;2024-02-26T05:28:16;25.63;;;14.07;;
64520;SDS011;50896;46.714;17.322;2024-02-26T05:33:13;26.05;;;13.73;;
64520;SDS011;50896;46.714;17.322;2024-02-26T05:35:44;19.73;;;11.40;;
64520;SDS011;50896;46.714;17.322;2024-02-26T05:38:11;20.85;;;12.32;;
64520;SDS011;50896;46.714;17.322;2024-02-26T05:40:38;16.77;;;10.77;;
64520;SDS011;50896;46.714;17.322;2024-02-26T05:43:05;23.30;;;11.57;;
64520;SDS011;50896;46.714;17.322;2024-02-26T05:45:32;16.58;;;11.13;;
64520;SDS011;50896;46.714;17.322;2024-02-26T05:47:59;16.40;;;9.70;;
64520;SDS011;50896;46.714;17.322;2024-02-26T05:50:26;14.07;;;8.88;;
64520;SDS011;50896;46.714;17.322;2024-02-26T05:52:53;15.38;;;8.82;;
64520;SDS011;50896;46.714;17.322;2024-02-26T05:55:20;15.38;;;9.38;;
64520;SDS011;50896;46.714;17.322;2024-02-26T05:57:47;13.68;;;9.13;;
64520;SDS011;50896;46.714;17.322;2024-02-26T06:00:16;14.15;;;8.85;;
64520;SDS011;50896;46.714;17.322;2024-02-26T06:02:43;14.45;;;8.95;;
64520;SDS011;50896;46.714;17.322;2024-02-26T06:05:10;14.18;;;9.10;;
64520;SDS011;50896;46.714;17.322;2024-02-26T06:07:37;12.68;;;7.72;;
64520;SDS011;50896;46.714;17.322;2024-02-26T06:10:04;11.90;;;7.68;;
64520;SDS011;50896;46.714;17.322;2024-02-26T06:12:35;12.32;;;7.95;;
64520;SDS011;50896;46.714;17.322;2024-02-26T06:15:02;11.30;;;7.20;;
64520;SDS011;50896;46.714;17.322;2024-02-26T06:17:31;10.68;;;7.28;;
64520;SDS011;50896;46.714;17.322;2024-02-26T06:19:57;12.70;;;7.60;;
64520;SDS011;50896;46.714;17.322;2024-02-26T06:22:26;11.45;;;7.10;;
64520;SDS011;50896;46.714;17.322;2024-02-26T06:24:53;14.07;;;7.78;;
64520;SDS011;50896;46.714;17.322;2024-02-26T06:27:20;12.13;;;7.50;;
64520;SDS011;50896;46.714;17.322;2024-02-26T06:29:48;12.68;;;7.38;;
64520;SDS011;50896;46.714;17.322;2024-02-26T06:32:15;12.98;;;7.40;;
64520;SDS011;50896;46.714;17.322;2024-02-26T06:34:42;12.45;;;7.70;;
64520;SDS011;50896;46.714;17.322;2024-02-26T06:37:09;12.18;;;7.50;;
64520;SDS011;50896;46.714;17.322;2024-02-26T06:39:35;9.65;;;6.82;;
64520;SDS011;50896;46.714;17.322;2024-02-26T06:42:02;11.15;;;7.40;;
64520;SDS011;50896;46.714;17.322;2024-02-26T06:44:30;10.85;;;6.70;;
64520;SDS011;50896;46.714;17.322;2024-02-26T06:46:58;11.45;;;6.90;;
64520;SDS011;50896;46.714;17.322;2024-02-26T06:49:26;11.43;;;7.05;;
64520;SDS011;50896;46.714;17.322;2024-02-26T06:51:54;13.40;;;7.20;;
64520;SDS011;50896;46.714;17.322;2024-02-26T06:54:21;11.30;;;6.72;;
64520;SDS011;50896;46.714;17.322;2024-02-26T06:56:48;11.32;;;7.22;;
64520;SDS011;50896;46.714;17.322;2024-02-26T06:59:15;12.23;;;7.57;;
64520;SDS011;50896;46.714;17.322;2024-02-26T07:01:42;13.07;;;7.45;;
64520;SDS011;50896;46.714;17.322;2024-02-26T07:04:09;11.52;;;7.25;;
64520;SDS011;50896;46.714;17.322;2024-02-26T07:06:37;9.43;;;6.53;;
64520;SDS011;50896;46.714;17.322;2024-02-26T07:09:04;8.85;;;6.50;;
64520;SDS011;50896;46.714;17.322;2024-02-26T07:11:31;12.20;;;6.93;;
64520;SDS011;50896;46.714;17.322;2024-02-26T07:13:58;9.15;;;6.60;;
64520;SDS011;50896;46.714;17.322;2024-02-26T07:16:25;10.13;;;7.07;;
64520;SDS011;50896;46.714;17.322;2024-02-26T07:18:53;8.00;;;6.13;;
64520;SDS011;50896;46.714;17.322;2024-02-26T07:21:20;11.95;;;6.60;;
64520;SDS011;50896;46.714;17.322;2024-02-26T07:23:47;7.82;;;6.07;;
64520;SDS011;50896;46.714;17.322;2024-02-26T07:26:14;10.80;;;7.05;;
64520;SDS011;50896;46.714;17.322;2024-02-26T07:28:41;14.88;;;10.25;;
64520;SDS011;50896;46.714;17.322;2024-02-26T07:31:08;18.27;;;10.10;;
64520;SDS011;50896;46.714;17.322;2024-02-26T07:33:35;11.77;;;8.10;;
64520;SDS011;50896;46.714;17.322;2024-02-26T07:36:02;12.50;;;8.15;;
64520;SDS011;50896;46.714;17.322;2024-02-26T07:38:29;11.15;;;6.30;;
64520;SDS011;50896;46.714;17.322;2024-02-26T07:41:08;10.43;;;5.97;;
64520;SDS011;50896;46.714;17.322;2024-02-26T07:43:35;10.32;;;5.97;;
64520;SDS011;50896;46.714;17.322;2024-02-26T07:46:02;9.05;;;5.60;;
64520;SDS011;50896;46.714;17.322;2024-02-26T07:48:29;9.60;;;5.88;;
64520;SDS011;50896;46.714;17.322;2024-02-26T07:50:56;7.57;;;5.50;;
64520;SDS011;50896;46.714;17.322;2024-02-26T07:53:25;8.90;;;4.65;;
64520;SDS011;50896;46.714;17.322;2024-02-26T07:55:52;8.15;;;4.75;;
64520;SDS011;50896;46.714;17.322;2024-02-26T07:58:19;8.63;;;4.72;;
64520;SDS011;50896;46.714;17.322;2024-02-26T08:00:46;8.23;;;4.25;;
64520;SDS011;50896;46.714;17.322;2024-02-26T08:03:13;8.65;;;4.57;;
64520;SDS011;50896;46.714;17.322;2024-02-26T08:05:42;10.10;;;4.72;;
64520;SDS011;50896;46.714;17.322;2024-02-26T08:08:10;7.82;;;4.03;;
64520;SDS011;50896;46.714;17.322;2024-02-26T08:10:37;8.68;;;4.10;;
64520;SDS011;50896;46.714;17.322;2024-02-26T08:13:03;7.88;;;4.00;;
64520;SDS011;50896;46.714;17.322;2024-02-26T08:15:36;7.72;;;3.72;;
64520;SDS011;50896;46.714;17.322;2024-02-26T08:18:05;10.05;;;4.22;;
64520;SDS011;50896;46.714;17.322;2024-02-26T08:20:32;8.23;;;4.25;;
64520;SDS011;50896;46.714;17.322;2024-02-26T08:22:59;6.88;;;4.03;;
64520;SDS011;50896;46.714;17.322;2024-02-26T08:25:26;5.45;;;4.00;;
64520;SDS011;50896;46.714;17.322;2024-02-26T08:27:54;7.80;;;4.13;;
64520;SDS011;50896;46.714;17.322;2024-02-26T08:30:21;7.78;;;3.92;;
64520;SDS011;50896;46.714;17.322;2024-02-26T08:32:48;5.70;;;3.72;;
64520;SDS011;50896;46.714;17.322;2024-02-26T08:35:18;8.48;;;3.60;;
64520;SDS011;50896;46.714;17.322;2024-02-26T08:37:46;5.28;;;3.00;;
64520;SDS011;50896;46.714;17.322;2024-02-26T08:40:14;5.57;;;3.72;;
64520;SDS011;50896;46.714;17.322;2024-02-26T08:42:41;8.00;;;3.70;;
64520;SDS011;50896;46.714;17.322;2024-02-26T08:45:08;4.75;;;3.58;;
64520;SDS011;50896;46.714;17.322;2024-02-26T08:47:36;7.97;;;4.28;;
64520;SDS011;50896;46.714;17.322;2024-02-26T08:50:03;9.38;;;4.45;;
64520;SDS011;50896;46.714;17.322;2024-02-26T08:52:31;5.75;;;3.65;;
64520;SDS011;50896;46.714;17.322;2024-02-26T08:54:58;8.25;;;4.18;;
64520;SDS011;50896;46.714;17.322;2024-02-26T08:57:25;6.53;;;4.20;;
64520;SDS011;50896;46.714;17.322;2024-02-26T08:59:54;8.18;;;4.43;;
64520;SDS011;50896;46.714;17.322;2024-02-26T09:02:21;7.20;;;5.00;;
64520;SDS011;50896;46.714;17.322;2024-02-26T09:04:47;6.70;;;4.60;;
64520;SDS011;50896;46.714;17.322;2024-02-26T09:07:14;8.98;;;4.93;;
64520;SDS011;50896;46.714;17.322;2024-02-26T09:09:42;6.18;;;4.47;;
64520;SDS011;50896;46.714;17.322;2024-02-26T09:12:09;8.30;;;5.40;;
64520;SDS011;50896;46.714;17.322;2024-02-26T09:14:37;8.20;;;4.85;;
64520;SDS011;50896;46.714;17.322;2024-02-26T09:17:04;9.40;;;5.00;;
64520;SDS011;50896;46.714;17.322;2024-02-26T09:19:32;8.43;;;5.13;;
64520;SDS011;50896;46.714;17.322;2024-02-26T09:21:59;8.38;;;5.30;;
64520;SDS011;50896;46.714;17.322;2024-02-26T09:24:26;11.52;;;5.28;;
64520;SDS011;50896;46.714;17.322;2024-02-26T09:26:53;8.32;;;5.18;;
64520;SDS011;50896;46.714;17.322;2024-02-26T09:29:20;9.00;;;5.20;;
64520;SDS011;50896;46.714;17.322;2024-02-26T09:31:47;7.93;;;5.40;;
64520;SDS011;50896;46.714;17.322;2024-02-26T09:34:14;8.60;;;5.40;;
64520;SDS011;50896;46.714;17.322;2024-02-26T09:36:41;8.70;;;5.40;;
64520;SDS011;50896;46.714;17.322;2024-02-26T09:39:08;9.57;;;5.57;;
64520;SDS011;50896;46.714;17.322;2024-02-26T09:41:38;6.68;;;4.75;;
64520;SDS011;50896;46.714;17.322;2024-02-26T09:44:05;8.50;;;5.47;;
64520;SDS011;50896;46.714;17.322;2024-02-26T09:46:33;7.40;;;5.35;;
64520;SDS011;50896;46.714;17.322;2024-02-26T09:49:00;7.63;;;4.55;;
64520;SDS011;50896;46.714;17.322;2024-02-26T09:51:27;7.90;;;4.90;;
64520;SDS011;50896;46.714;17.322;2024-02-26T09:53:56;7.50;;;4.28;;
64520;SDS011;50896;46.714;17.322;2024-02-26T09:56:26;6.03;;;4.03;;
64520;SDS011;50896;46.714;17.322;2024-02-26T09:58:54;8.85;;;4.20;;
64520;SDS011;50896;46.714;17.322;2024-02-26T10:01:23;5.13;;;3.50;;
64520;SDS011;50896;46.714;17.322;2024-02-26T10:03:54;6.20;;;3.65;;
64520;SDS011;50896;46.714;17.322;2024-02-26T10:06:24;7.25;;;3.78;;
64520;SDS011;50896;46.714;17.322;2024-02-26T10:08:53;5.90;;;3.70;;
64520;SDS011;50896;46.714;17.322;2024-02-26T10:11:21;6.30;;;3.72;;
64520;SDS011;50896;46.714;17.322;2024-02-26T10:13:49;6.13;;;3.85;;
64520;SDS011;50896;46.714;17.322;2024-02-26T10:16:16;6.80;;;3.20;;
64520;SDS011;50896;46.714;17.322;2024-02-26T10:18:47;8.32;;;3.00;;
64520;SDS011;50896;46.714;17.322;2024-02-26T10:21:18;5.55;;;3.08;;
64520;SDS011;50896;46.714;17.322;2024-02-26T10:23:46;6.28;;;2.85;;
64520;SDS011;50896;46.714;17.322;2024-02-26T10:26:14;4.63;;;2.20;;
64520;SDS011;50896;46.714;17.322;2024-02-26T10:28:42;6.70;;;2.47;;
64520;SDS011;50896;46.714;17.322;2024-02-26T10:31:11;4.85;;;2.25;;
64520;SDS011;50896;46.714;17.322;2024-02-26T10:33:40;3.85;;;1.67;;
64520;SDS011;50896;46.714;17.322;2024-02-26T10:36:09;2.67;;;1.67;;
64520;SDS011;50896;46.714;17.322;2024-02-26T10:38:37;4.18;;;1.75;;
64520;SDS011;50896;46.714;17.322;2024-02-26T10:41:05;4.45;;;1.98;;
64520;SDS011;50896;46.714;17.322;2024-02-26T10:43:33;3.05;;;1.75;;
64520;SDS011;50896;46.714;17.322;2024-02-26T10:46:00;4.15;;;1.33;;
64520;SDS011;50896;46.714;17.322;2024-02-26T10:48:27;3.15;;;1.85;;
64520;SDS011;50896;46.714;17.322;2024-02-26T10:50:54;4.53;;;1.52;;
64520;SDS011;50896;46.714;17.322;2024-02-26T10:53:26;3.45;;;1.98;;
64520;SDS011;50896;46.714;17.322;2024-02-26T10:55:58;4.15;;;1.60;;
64520;SDS011;50896;46.714;17.322;2024-02-26T10:58:28;3.97;;;1.50;;
64520;SDS011;50896;46.714;17.322;2024-02-26T11:00:56;2.15;;;1.10;;
64520;SDS011;50896;46.714;17.322;2024-02-26T11:03:24;2.58;;;1.35;;
64520;SDS011;50896;46.714;17.322;2024-02-26T11:05:52;2.97;;;1.48;;
64520;SDS011;50896;46.714;17.322;2024-02-26T11:08:19;5.75;;;1.13;;
64520;SDS011;50896;46.714;17.322;2024-02-26T11:10:48;2.33;;;1.20;;
64520;SDS011;50896;46.714;17.322;2024-02-26T11:13:19;6.90;;;1.45;;
64520;SDS011;50896;46.714;17.322;2024-02-26T11:15:49;3.00;;;1.05;;
64520;SDS011;50896;46.714;17.322;2024-02-26T11:18:18;2.05;;;1.00;;
64520;SDS011;50896;46.714;17.322;2024-02-26T11:20:46;4.15;;;1.52;;
64520;SDS011;50896;46.714;17.322;2024-02-26T11:23:14;3.30;;;1.42;;
64520;SDS011;50896;46.714;17.322;2024-02-26T11:25:42;2.17;;;0.98;;
64520;SDS011;50896;46.714;17.322;2024-02-26T11:28:11;3.42;;;1.20;;
64520;SDS011;50896;46.714;17.322;2024-02-26T11:30:44;2.92;;;1.30;;
64520;SDS011;50896;46.714;17.322;2024-02-26T11:33:15;3.75;;;1.30;;
64520;SDS011;50896;46.714;17.322;2024-02-26T11:35:42;2.75;;;0.93;;
64520;SDS011;50896;46.714;17.322;2024-02-26T11:38:16;4.45;;;1.30;;
64520;SDS011;50896;46.714;17.322;2024-02-26T11:40:50;3.40;;;1.00;;
64520;SDS011;50896;46.714;17.322;2024-02-26T11:51:28;19.67;;;10.43;;
64520;SDS011;50896;46.714;17.322;2024-02-26T11:53:59;18.15;;;8.45;;
64520;SDS011;50896;46.714;17.322;2024-02-26T11:56:26;4.00;;;1.85;;
64520;SDS011;50896;46.714;17.322;2024-02-26T11:58:58;3.20;;;1.30;;
64520;SDS011;50896;46.714;17.322;2024-02-26T12:01:48;1.58;;;1.05;;
64520;SDS011;50896;46.714;17.322;2024-02-26T12:04:18;4.65;;;0.93;;
64520;SDS011;50896;46.714;17.322;2024-02-26T12:06:52;2.90;;;1.23;;
64520;SDS011;50896;46.714;17.322;2024-02-26T12:09:32;2.90;;;1.10;;
64520;SDS011;50896;46.714;17.322;2024-02-26T12:12:08;2.28;;;0.90;;
64520;SDS011;50896;46.714;17.322;2024-02-26T12:14:39;2.58;;;1.13;;
64520;SDS011;50896;46.714;17.322;2024-02-26T12:17:07;2.83;;;1.10;;
64520;SDS011;50896;46.714;17.322;2024-02-26T12:19:46;3.75;;;0.98;;
64520;SDS011;50896;46.714;17.322;2024-02-26T12:22:13;1.42;;;0.88;;
64520;SDS011;50896;46.714;17.322;2024-02-26T12:24:43;2.45;;;1.00;;
64520;SDS011;50896;46.714;17.322;2024-02-26T12:27:10;1.10;;;0.65;;
64520;SDS011;50896;46.714;17.322;2024-02-26T12:29:39;2.20;;;1.10;;
64520;SDS011;50896;46.714;17.322;2024-02-26T12:32:06;2.63;;;1.20;;
64520;SDS011;50896;46.714;17.322;2024-02-26T12:34:34;1.80;;;1.02;;
64520;SDS011;50896;46.714;17.322;2024-02-26T12:37:01;1.67;;;1.05;;
64520;SDS011;50896;46.714;17.322;2024-02-26T12:39:28;1.95;;;0.93;;
64520;SDS011;50896;46.714;17.322;2024-02-26T12:41:58;4.38;;;1.77;;
64520;SDS011;50896;46.714;17.322;2024-02-26T12:44:26;3.20;;;1.55;;
64520;SDS011;50896;46.714;17.322;2024-02-26T12:47:00;3.72;;;1.50;;
64520;SDS011;50896;46.714;17.322;2024-02-26T12:49:29;1.98;;;1.10;;
64520;SDS011;50896;46.714;17.322;2024-02-26T12:51:57;5.50;;;2.03;;
64520;SDS011;50896;46.714;17.322;2024-02-26T12:54:28;1.83;;;0.90;;
64520;SDS011;50896;46.714;17.322;2024-02-26T12:57:00;2.65;;;1.17;;
64520;SDS011;50896;46.714;17.322;2024-02-26T13:01:57;1.80;;;0.90;;
64520;SDS011;50896;46.714;17.322;2024-02-26T13:04:24;3.35;;;1.00;;
64520;SDS011;50896;46.714;17.322;2024-02-26T13:06:55;1.10;;;0.75;;
64520;SDS011;50896;46.714;17.322;2024-02-26T13:09:22;2.22;;;1.05;;
64520;SDS011;50896;46.714;17.322;2024-02-26T13:11:55;3.45;;;1.65;;
64520;SDS011;50896;46.714;17.322;2024-02-26T13:14:22;2.95;;;1.50;;
64520;SDS011;50896;46.714;17.322;2024-02-26T13:16:56;4.05;;;1.65;;
64520;SDS011;50896;46.714;17.322;2024-02-26T13:19:24;1.45;;;0.93;;
64520;SDS011;50896;46.714;17.322;2024-02-26T13:21:51;1.30;;;0.95;;
64520;SDS011;50896;46.714;17.322;2024-02-26T13:24:19;3.00;;;1.05;;
64520;SDS011;50896;46.714;17.322;2024-02-26T13:26:46;3.25;;;1.20;;
64520;SDS011;50896;46.714;17.322;2024-02-26T13:29:19;2.70;;;1.10;;
64520;SDS011;50896;46.714;17.322;2024-02-26T13:31:47;2.78;;;1.02;;
64520;SDS011;50896;46.714;17.322;2024-02-26T13:34:26;2.70;;;1.08;;
64520;SDS011;50896;46.714;17.322;2024-02-26T13:36:54;3.47;;;1.05;;
64520;SDS011;50896;46.714;17.322;2024-02-26T13:39:24;1.80;;;0.90;;
64520;SDS011;50896;46.714;17.322;2024-02-26T13:41:53;2.95;;;1.13;;
64520;SDS011;50896;46.714;17.322;2024-02-26T13:44:21;2.28;;;1.00;;
64520;SDS011;50896;46.714;17.322;2024-02-26T13:46:48;1.55;;;1.15;;
64520;SDS011;50896;46.714;17.322;2024-02-26T13:49:15;1.27;;;0.80;;
64520;SDS011;50896;46.714;17.322;2024-02-26T13:51:43;2.92;;;1.00;;
64520;SDS011;50896;46.714;17.322;2024-02-26T13:54:10;2.33;;;0.95;;
64520;SDS011;50896;46.714;17.322;2024-02-26T13:56:37;2.30;;;1.00;;
64520;SDS011;50896;46.714;17.322;2024-02-26T13:59:04;2.88;;;1.13;;
64520;SDS011;50896;46.714;17.322;2024-02-26T14:01:31;3.38;;;1.00;;
64520;SDS011;50896;46.714;17.322;2024-02-26T14:04:00;2.00;;;0.80;;
64520;SDS011;50896;46.714;17.322;2024-02-26T14:06:29;1.60;;;0.90;;
64520;SDS011;50896;46.714;17.322;2024-02-26T14:08:57;1.17;;;0.73;;
64520;SDS011;50896;46.714;17.322;2024-02-26T14:11:25;2.85;;;1.40;;
64520;SDS011;50896;46.714;17.322;2024-02-26T14:13:52;1.83;;;1.30;;
64520;SDS011;50896;46.714;17.322;2024-02-26T14:16:19;3.70;;;1.30;;
64520;SDS011;50896;46.714;17.322;2024-02-26T14:18:47;2.05;;;1.30;;
64520;SDS011;50896;46.714;17.322;2024-02-26T14:21:14;1.80;;;1.20;;
64520;SDS011;50896;46.714;17.322;2024-02-26T14:23:41;2.42;;;1.00;;
64520;SDS011;50896;46.714;17.322;2024-02-26T14:26:10;1.42;;;1.10;;
64520;SDS011;50896;46.714;17.322;2024-02-26T14:28:38;2.70;;;1.23;;
64520;SDS011;50896;46.714;17.322;2024-02-26T14:31:05;1.98;;;1.70;;
64520;SDS011;50896;46.714;17.322;2024-02-26T14:33:36;5.13;;;3.22;;
64520;SDS011;50896;46.714;17.322;2024-02-26T14:36:06;4.00;;;2.08;;
64520;SDS011;50896;46.714;17.322;2024-02-26T14:38:33;3.55;;;1.40;;
64520;SDS011;50896;46.714;17.322;2024-02-26T14:41:00;2.50;;;1.33;;
64520;SDS011;50896;46.714;17.322;2024-02-26T14:43:27;2.53;;;1.40;;